Time,TemperatureF,DewpointF,PressureIn,WindDirection,WindDirectionDegrees,WindSpeedMPH,WindSpeedGustMPH,Humidity,HourlyPrecipIn,Conditions,Clouds,dailyrainin,SoftwareType,DateUTC
2013-06-05 00:01:00,63.0,45.5,30.15,North,349,0.0,1.0,53,0.00,,,0.00,meteohub,2013-06-05 04:01:00,
2013-06-05 00:02:00,63.0,45.1,30.16,North,349,0.0,1.0,52,0.00,,,0.00,meteohub,2013-06-05 04:02:00,
2013-06-05 00:07:00,62.8,45.0,30.15,North,349,0.0,1.0,52,0.00,,,0.00,meteohub,2013-06-05 04:07:00,
2013-06-05 00:12:00,62.8,45.0,30.15,NNW,348,0.0,1.0,52,0.00,,,0.00,meteohub,2013-06-05 04:12:00,
2013-06-05 00:17:00,62.6,44.2,30.15,North,349,0.0,1.0,51,0.00,,,0.00,meteohub,2013-06-05 04:17:00,
2013-06-05 00:22:00,62.6,43.7,30.15,North,351,0.0,0.0,50,0.00,,,0.00,meteohub,2013-06-05 04:22:00,
2013-06-05 00:27:00,62.6,44.2,30.16,North,357,0.0,1.0,51,0.00,,,0.00,meteohub,2013-06-05 04:27:00,
2013-06-05 00:32:00,62.4,44.6,30.15,North,1,1.0,1.0,52,0.00,,,0.00,meteohub,2013-06-05 04:32:00,
2013-06-05 00:37:00,62.2,44.4,30.15,North,1,0.0,1.0,52,0.00,,,0.00,meteohub,2013-06-05 04:37:00,
2013-06-05 00:42:00,62.2,43.3,30.15,North,1,0.0,1.0,50,0.00,,,0.00,meteohub,2013-06-05 04:42:00,
2013-06-05 00:47:00,62.1,43.7,30.16,North,1,1.0,1.0,51,0.00,,,0.00,meteohub,2013-06-05 04:47:00,
2013-06-05 00:52:00,62.1,43.7,30.16,North,4,1.0,1.0,51,0.00,,,0.00,meteohub,2013-06-05 04:52:00,
2013-06-05 00:57:00,62.1,43.2,30.15,NNE,13,0.0,1.0,50,0.00,,,0.00,meteohub,2013-06-05 04:57:00,
2013-06-05 01:02:00,62.1,42.6,30.15,NNE,30,0.0,1.0,49,0.00,,,0.00,meteohub,2013-06-05 05:02:00,
2013-06-05 01:07:00,62.1,43.2,30.15,NE,44,2.0,2.0,50,0.00,,,0.00,meteohub,2013-06-05 05:07:00,
2013-06-05 01:12:00,62.1,42.6,30.15,NE,50,1.0,2.0,49,0.00,,,0.00,meteohub,2013-06-05 05:12:00,
2013-06-05 01:17:00,62.1,42.6,30.15,ENE,57,1.0,2.0,49,0.00,,,0.00,meteohub,2013-06-05 05:17:00,
2013-06-05 01:22:00,61.9,44.6,30.15,ENE,58,0.0,2.0,53,0.00,,,0.00,meteohub,2013-06-05 05:22:00,
2013-06-05 01:27:00,61.3,43.0,30.16,ENE,58,0.0,2.0,51,0.00,,,0.00,meteohub,2013-06-05 05:27:00,
2013-06-05 01:32:00,61.2,43.3,30.15,ENE,58,0.0,1.0,52,0.00,,,0.00,meteohub,2013-06-05 05:32:00,
2013-06-05 01:37:00,60.6,42.4,30.15,NE,47,0.0,1.0,51,0.00,,,0.00,meteohub,2013-06-05 05:37:00,
2013-06-05 01:42:00,60.6,42.4,30.15,NE,47,1.0,1.0,51,0.00,,,0.00,meteohub,2013-06-05 05:42:00,
2013-06-05 01:47:00,60.6,43.0,30.15,NE,47,0.0,1.0,52,0.00,,,0.00,meteohub,2013-06-05 05:47:00,
2013-06-05 01:52:00,60.4,43.7,30.15,NE,46,0.0,1.0,54,0.00,,,0.00,meteohub,2013-06-05 05:52:00,
2013-06-05 01:57:00,59.7,43.0,30.15,NE,47,0.0,1.0,54,0.00,,,0.00,meteohub,2013-06-05 05:57:00,
2013-06-05 02:02:00,59.4,42.8,30.15,NE,47,0.0,1.0,54,0.00,,,0.00,meteohub,2013-06-05 06:02:00,
2013-06-05 02:07:00,59.0,42.8,30.15,NE,46,0.0,1.0,55,0.00,,,0.00,meteohub,2013-06-05 06:07:00,
2013-06-05 02:12:00,59.0,42.4,30.15,NE,44,1.0,0.0,54,0.00,,,0.00,meteohub,2013-06-05 06:12:00,
2013-06-05 02:18:00,59.4,41.7,30.15,NE,34,1.0,2.0,52,0.00,,,0.00,meteohub,2013-06-05 06:18:00,
2013-06-05 02:23:00,59.5,42.8,30.15,NE,34,0.0,2.0,54,0.00,,,0.00,meteohub,2013-06-05 06:23:00,
2013-06-05 02:28:00,59.2,42.6,30.16,North,351,0.0,2.0,54,0.00,,,0.00,meteohub,2013-06-05 06:28:00,
2013-06-05 02:33:00,58.6,42.4,30.16,North,351,0.0,2.0,55,0.00,,,0.00,meteohub,2013-06-05 06:33:00,
2013-06-05 02:38:00,58.3,42.6,30.16,North,352,0.0,1.0,56,0.00,,,0.00,meteohub,2013-06-05 06:38:00,
2013-06-05 02:43:00,57.7,42.6,30.16,North,352,0.0,1.0,57,0.00,,,0.00,meteohub,2013-06-05 06:43:00,
2013-06-05 02:48:00,57.4,42.8,30.16,North,352,0.0,0.0,58,0.00,,,0.00,meteohub,2013-06-05 06:48:00,
2013-06-05 02:53:00,57.0,42.8,30.16,North,352,0.0,0.0,59,0.00,,,0.00,meteohub,2013-06-05 06:53:00,
2013-06-05 02:58:00,56.5,43.2,30.16,North,352,0.0,0.0,61,0.00,,,0.00,meteohub,2013-06-05 06:58:00,
2013-06-05 03:03:00,56.1,44.1,30.16,North,352,0.0,0.0,64,0.00,,,0.00,meteohub,2013-06-05 07:03:00,
2013-06-05 03:08:00,55.8,44.2,30.16,North,352,0.0,0.0,65,0.00,,,0.00,meteohub,2013-06-05 07:08:00,
2013-06-05 03:13:00,55.2,44.4,30.16,North,352,0.0,0.0,67,0.00,,,0.00,meteohub,2013-06-05 07:13:00,
2013-06-05 03:18:00,54.9,45.0,30.16,North,351,0.0,0.0,69,0.00,,,0.00,meteohub,2013-06-05 07:18:00,
2013-06-05 03:23:00,54.5,44.2,30.16,North,352,0.0,0.0,68,0.00,,,0.00,meteohub,2013-06-05 07:23:00,
2013-06-05 03:28:00,54.1,43.9,30.16,North,352,0.0,0.0,68,0.00,,,0.00,meteohub,2013-06-05 07:28:00,
2013-06-05 03:33:00,54.0,44.4,30.16,North,352,0.0,0.0,70,0.00,,,0.00,meteohub,2013-06-05 07:33:00,
2013-06-05 03:38:00,54.0,44.8,30.16,North,352,0.0,0.0,71,0.00,,,0.00,meteohub,2013-06-05 07:38:00,
2013-06-05 03:43:00,53.8,44.6,30.17,NNW,339,0.0,0.0,71,0.00,,,0.00,meteohub,2013-06-05 07:43:00,
2013-06-05 03:48:00,53.4,45.0,30.16,NNW,339,0.0,0.0,73,0.00,,,0.00,meteohub,2013-06-05 07:48:00,
2013-06-05 03:53:00,53.1,45.0,30.16,NNW,338,0.0,0.0,74,0.00,,,0.00,meteohub,2013-06-05 07:53:00,
2013-06-05 03:58:00,52.9,44.8,30.16,NNW,339,0.0,0.0,74,0.00,,,0.00,meteohub,2013-06-05 07:58:00,
2013-06-05 04:03:00,52.5,44.4,30.16,NNW,338,0.0,0.0,74,0.00,,,0.00,meteohub,2013-06-05 08:03:00,
2013-06-05 04:08:00,52.5,44.4,30.17,NNW,338,0.0,0.0,74,0.00,,,0.00,meteohub,2013-06-05 08:08:00,
2013-06-05 04:13:00,52.3,44.2,30.17,NNW,339,0.0,0.0,74,0.00,,,0.00,meteohub,2013-06-05 08:13:00,
2013-06-05 04:18:00,52.5,44.8,30.17,NNW,339,0.0,0.0,75,0.00,,,0.00,meteohub,2013-06-05 08:18:00,
2013-06-05 04:23:00,52.5,45.1,30.17,NNW,338,0.0,0.0,76,0.00,,,0.00,meteohub,2013-06-05 08:23:00,
2013-06-05 04:28:00,52.2,44.8,30.17,NNW,338,0.0,0.0,76,0.00,,,0.00,meteohub,2013-06-05 08:28:00,
2013-06-05 04:33:00,52.0,44.2,30.17,NNW,339,0.0,0.0,75,0.00,,,0.00,meteohub,2013-06-05 08:33:00,
2013-06-05 04:38:00,51.8,44.1,30.17,NNW,338,0.0,0.0,75,0.00,,,0.00,meteohub,2013-06-05 08:38:00,
2013-06-05 04:43:00,51.8,44.8,30.17,NNW,339,0.0,0.0,77,0.00,,,0.00,meteohub,2013-06-05 08:43:00,
2013-06-05 04:48:00,51.6,45.0,30.17,NNW,338,0.0,0.0,78,0.00,,,0.00,meteohub,2013-06-05 08:48:00,
2013-06-05 04:53:00,51.4,44.8,30.18,NNW,338,0.0,0.0,78,0.00,,,0.00,meteohub,2013-06-05 08:53:00,
2013-06-05 04:58:00,51.4,44.8,30.18,NNW,339,0.0,0.0,78,0.00,,,0.00,meteohub,2013-06-05 08:58:00,
2013-06-05 05:03:00,51.3,44.6,30.18,NNW,338,0.0,0.0,78,0.00,,,0.00,meteohub,2013-06-05 09:03:00,
2013-06-05 05:08:00,51.1,44.4,30.18,NNW,338,0.0,0.0,78,0.00,,,0.00,meteohub,2013-06-05 09:08:00,
2013-06-05 05:13:00,51.1,44.1,30.18,NNW,339,0.0,0.0,77,0.00,,,0.00,meteohub,2013-06-05 09:13:00,
2013-06-05 05:18:00,51.1,44.1,30.18,NNW,339,0.0,0.0,77,0.00,,,0.00,meteohub,2013-06-05 09:18:00,
2013-06-05 05:23:00,51.1,44.1,30.19,NNW,339,0.0,0.0,77,0.00,,,0.00,meteohub,2013-06-05 09:23:00,
2013-06-05 05:28:00,50.9,44.2,30.19,NNW,338,0.0,0.0,78,0.00,,,0.00,meteohub,2013-06-05 09:28:00,
2013-06-05 05:33:00,50.7,44.4,30.19,NNW,339,0.0,0.0,79,0.00,,,0.00,meteohub,2013-06-05 09:33:00,
2013-06-05 05:38:00,50.5,44.6,30.19,NNW,338,0.0,0.0,80,0.00,,,0.00,meteohub,2013-06-05 09:38:00,
2013-06-05 05:43:00,50.4,44.8,30.20,NNW,338,0.0,0.0,81,0.00,,,0.00,meteohub,2013-06-05 09:43:00,
2013-06-05 05:48:00,50.2,44.6,30.20,NNW,339,0.0,0.0,81,0.00,,,0.00,meteohub,2013-06-05 09:48:00,
2013-06-05 05:53:00,50.0,44.8,30.20,NNW,338,0.0,0.0,82,0.00,,,0.00,meteohub,2013-06-05 09:53:00,
2013-06-05 05:58:00,49.8,44.6,30.20,NNW,339,0.0,0.0,82,0.00,,,0.00,meteohub,2013-06-05 09:58:00,
2013-06-05 06:03:00,49.8,44.6,30.21,NNW,338,0.0,0.0,82,0.00,,,0.00,meteohub,2013-06-05 10:03:00,
2013-06-05 06:08:00,49.8,44.6,30.21,NNW,338,0.0,0.0,82,0.00,,,0.00,meteohub,2013-06-05 10:08:00,
2013-06-05 06:13:00,50.0,44.8,30.21,NNW,338,0.0,0.0,82,0.00,,,0.00,meteohub,2013-06-05 10:13:00,
2013-06-05 06:18:00,50.4,44.8,30.22,NNW,339,0.0,0.0,81,0.00,,,0.00,meteohub,2013-06-05 10:18:00,
2013-06-05 06:23:00,50.5,44.6,30.22,NNW,339,0.0,0.0,80,0.00,,,0.00,meteohub,2013-06-05 10:23:00,
2013-06-05 06:28:00,50.5,44.6,30.22,NNW,338,0.0,0.0,80,0.00,,,0.00,meteohub,2013-06-05 10:28:00,
2013-06-05 06:33:00,50.9,45.0,30.22,NNW,339,0.0,0.0,80,0.00,,,0.00,meteohub,2013-06-05 10:33:00,
2013-06-05 06:38:00,51.8,45.5,30.22,NW,325,0.0,0.0,79,0.00,,,0.00,meteohub,2013-06-05 10:38:00,
2013-06-05 06:43:00,52.2,45.1,30.22,NW,325,0.0,0.0,77,0.00,,,0.00,meteohub,2013-06-05 10:43:00,
2013-06-05 06:48:00,52.5,45.5,30.22,NW,325,0.0,0.0,77,0.00,,,0.00,meteohub,2013-06-05 10:48:00,
2013-06-05 06:53:00,52.9,45.5,30.22,NW,324,0.0,0.0,76,0.00,,,0.00,meteohub,2013-06-05 10:53:00,
2013-06-05 06:58:00,53.1,45.3,30.23,NW,324,0.0,0.0,75,0.00,,,0.00,meteohub,2013-06-05 10:58:00,
2013-06-05 07:03:00,53.6,45.9,30.23,NW,324,0.0,0.0,75,0.00,,,0.00,meteohub,2013-06-05 11:03:00,
2013-06-05 07:08:00,54.0,45.9,30.23,NW,324,0.0,0.0,74,0.00,,,0.00,meteohub,2013-06-05 11:08:00,
2013-06-05 07:14:00,54.3,46.2,30.23,NW,324,0.0,0.0,74,0.00,,,0.00,meteohub,2013-06-05 11:14:00,
2013-06-05 07:19:00,54.9,46.8,30.24,NW,325,0.0,0.0,74,0.00,,,0.00,meteohub,2013-06-05 11:19:00,
2013-06-05 07:24:00,55.4,46.9,30.24,WNW,297,0.0,0.0,73,0.00,,,0.00,meteohub,2013-06-05 11:24:00,
2013-06-05 07:29:00,56.1,46.8,30.24,NE,38,0.0,0.0,71,0.00,,,0.00,meteohub,2013-06-05 11:29:00,
2013-06-05 07:33:00,57.0,46.6,30.24,NNE,33,0.0,0.0,68,0.00,,,0.00,meteohub,2013-06-05 11:33:00,
2013-06-05 07:39:00,57.9,46.2,30.24,NE,55,0.0,0.0,65,0.00,,,0.00,meteohub,2013-06-05 11:39:00,
2013-06-05 07:44:00,58.6,46.6,30.24,NE,55,0.0,3.0,64,0.00,,,0.00,meteohub,2013-06-05 11:44:00,
2013-06-05 07:49:00,59.2,46.6,30.24,ENE,68,1.0,3.0,63,0.00,,,0.00,meteohub,2013-06-05 11:49:00,
2013-06-05 07:54:00,59.4,46.8,30.24,ENE,68,0.0,3.0,63,0.00,,,0.00,meteohub,2013-06-05 11:54:00,
2013-06-05 07:59:00,59.7,47.1,30.24,ENE,63,1.0,2.0,63,0.00,,,0.00,meteohub,2013-06-05 11:59:00,
2013-06-05 08:04:00,60.1,46.9,30.24,NE,50,1.0,2.0,62,0.00,,,0.00,meteohub,2013-06-05 12:04:00,
2013-06-05 08:09:00,60.3,47.7,30.24,NE,55,1.0,3.0,63,0.00,,,0.00,meteohub,2013-06-05 12:09:00,
2013-06-05 08:14:00,60.4,47.3,30.24,NE,41,0.0,3.0,62,0.00,,,0.00,meteohub,2013-06-05 12:14:00,
2013-06-05 08:19:00,60.6,47.1,30.24,ENE,61,0.0,3.0,61,0.00,,,0.00,meteohub,2013-06-05 12:19:00,
2013-06-05 08:24:00,61.0,47.8,30.24,ENE,61,0.0,3.0,62,0.00,,,0.00,meteohub,2013-06-05 12:24:00,
2013-06-05 08:29:00,61.2,47.1,30.24,NE,50,0.0,2.0,60,0.00,,,0.00,meteohub,2013-06-05 12:29:00,
2013-06-05 08:34:00,61.5,48.0,30.24,NE,41,1.0,2.0,61,0.00,,,0.00,meteohub,2013-06-05 12:34:00,
2013-06-05 08:39:00,61.9,48.2,30.24,NNW,344,0.0,3.0,61,0.00,,,0.00,meteohub,2013-06-05 12:39:00,
2013-06-05 08:44:00,62.2,48.6,30.24,ENE,63,2.0,3.0,61,0.00,,,0.00,meteohub,2013-06-05 12:44:00,
2013-06-05 08:49:00,62.6,48.6,30.24,ENE,60,1.0,3.0,60,0.00,,,0.00,meteohub,2013-06-05 12:49:00,
2013-06-05 08:54:00,63.0,48.4,30.25,NE,49,2.0,3.0,59,0.00,,,0.00,meteohub,2013-06-05 12:54:00,
2013-06-05 08:59:00,63.3,48.4,30.25,NE,44,1.0,3.0,58,0.00,,,0.00,meteohub,2013-06-05 12:59:00,
2013-06-05 09:04:00,63.7,49.1,30.25,South,170,1.0,2.0,59,0.00,,,0.00,meteohub,2013-06-05 13:04:00,
2013-06-05 09:09:00,64.2,49.6,30.25,SSE,162,0.0,2.0,59,0.00,,,0.00,meteohub,2013-06-05 13:09:00,
2013-06-05 09:14:00,64.8,50.2,30.25,East,88,1.0,2.0,59,0.00,,,0.00,meteohub,2013-06-05 13:14:00,
2013-06-05 09:19:00,65.1,50.0,30.25,NE,46,0.0,3.0,58,0.00,,,0.00,meteohub,2013-06-05 13:19:00,
2013-06-05 09:24:00,65.5,49.8,30.25,ENE,69,1.0,4.0,57,0.00,,,0.00,meteohub,2013-06-05 13:24:00,
2013-06-05 09:29:00,65.8,49.6,30.25,ENE,63,2.0,4.0,56,0.00,,,0.00,meteohub,2013-06-05 13:29:00,
2013-06-05 09:34:00,66.4,49.6,30.25,East,79,1.0,4.0,55,0.00,,,0.00,meteohub,2013-06-05 13:34:00,
2013-06-05 09:39:00,66.7,49.6,30.25,ESE,102,1.0,3.0,54,0.00,,,0.00,meteohub,2013-06-05 13:39:00,
2013-06-05 09:44:00,66.9,48.7,30.25,SE,124,2.0,4.0,52,0.00,,,0.00,meteohub,2013-06-05 13:44:00,
2013-06-05 09:49:00,67.3,49.6,30.25,ENE,63,3.0,4.0,53,0.00,,,0.00,meteohub,2013-06-05 13:49:00,
2013-06-05 09:54:00,67.8,50.0,30.25,ENE,72,2.0,4.0,53,0.00,,,0.00,meteohub,2013-06-05 13:54:00,
2013-06-05 09:59:00,67.8,49.1,30.25,South,179,2.0,5.0,51,0.00,,,0.00,meteohub,2013-06-05 13:59:00,
2013-06-05 10:04:00,68.0,49.3,30.25,ESE,119,0.0,5.0,51,0.00,,,0.00,meteohub,2013-06-05 14:04:00,
2013-06-05 10:09:00,68.2,48.9,30.25,East,99,3.0,5.0,50,0.00,,,0.00,meteohub,2013-06-05 14:09:00,
2013-06-05 10:14:00,68.4,49.5,30.24,ENE,73,4.0,6.0,51,0.00,,,0.00,meteohub,2013-06-05 14:14:00,
2013-06-05 10:19:00,68.5,49.1,30.24,ESE,120,3.0,6.0,50,0.00,,,0.00,meteohub,2013-06-05 14:19:00,
2013-06-05 10:24:00,68.4,49.5,30.25,ESE,104,2.0,7.0,51,0.00,,,0.00,meteohub,2013-06-05 14:24:00,
2013-06-05 10:29:00,68.2,49.3,30.25,SE,141,4.0,7.0,51,0.00,,,0.00,meteohub,2013-06-05 14:29:00,
2013-06-05 10:34:00,68.5,48.6,30.25,ESE,106,4.0,9.0,49,0.00,,,0.00,meteohub,2013-06-05 14:34:00,
2013-06-05 10:39:00,68.7,50.4,30.25,ESE,108,4.0,9.0,52,0.00,,,0.00,meteohub,2013-06-05 14:39:00,
2013-06-05 10:44:00,68.4,48.4,30.25,ESE,105,3.0,9.0,49,0.00,,,0.00,meteohub,2013-06-05 14:44:00,
2013-06-05 10:49:00,68.4,47.8,30.25,East,98,1.0,6.0,48,0.00,,,0.00,meteohub,2013-06-05 14:49:00,
2013-06-05 10:54:00,68.2,48.4,30.24,East,79,3.0,6.0,49,0.00,,,0.00,meteohub,2013-06-05 14:54:00,
2013-06-05 10:59:00,68.4,48.9,30.24,ESE,115,1.0,6.0,50,0.00,,,0.00,meteohub,2013-06-05 14:59:00,
2013-06-05 11:04:00,68.2,48.4,30.24,ENE,58,2.0,6.0,49,0.00,,,0.00,meteohub,2013-06-05 15:04:00,
2013-06-05 11:09:00,68.2,47.1,30.24,East,100,4.0,6.0,47,0.00,,,0.00,meteohub,2013-06-05 15:09:00,
2013-06-05 11:14:00,68.5,47.5,30.24,East,91,3.0,6.0,47,0.00,,,0.00,meteohub,2013-06-05 15:14:00,
2013-06-05 11:19:00,68.5,47.5,30.24,South,181,1.0,6.0,47,0.00,,,0.00,meteohub,2013-06-05 15:19:00,
2013-06-05 11:24:00,69.1,47.5,30.24,ENE,63,3.0,5.0,46,0.00,,,0.00,meteohub,2013-06-05 15:24:00,
2013-06-05 11:29:00,69.1,48.0,30.24,East,79,4.0,7.0,47,0.00,,,0.00,meteohub,2013-06-05 15:29:00,
2013-06-05 11:34:00,69.1,48.6,30.24,ESE,103,3.0,7.0,48,0.00,,,0.00,meteohub,2013-06-05 15:34:00,
2013-06-05 11:39:00,69.3,46.9,30.23,East,79,2.0,7.0,45,0.00,,,0.00,meteohub,2013-06-05 15:39:00,
2013-06-05 11:44:00,69.3,46.4,30.23,East,91,0.0,7.0,44,0.00,,,0.00,meteohub,2013-06-05 15:44:00,
2013-06-05 11:49:00,69.3,45.9,30.23,East,79,2.0,5.0,43,0.00,,,0.00,meteohub,2013-06-05 15:49:00,
2013-06-05 11:54:00,69.8,46.9,30.23,SE,134,1.0,5.0,44,0.00,,,0.00,meteohub,2013-06-05 15:54:00,
2013-06-05 11:59:00,70.3,47.5,30.23,ENE,77,1.0,5.0,44,0.00,,,0.00,meteohub,2013-06-05 15:59:00,
2013-06-05 12:04:00,70.5,47.5,30.23,East,94,3.0,5.0,44,0.00,,,0.00,meteohub,2013-06-05 16:04:00,
2013-06-05 12:09:00,70.5,46.9,30.23,SE,127,2.0,4.0,43,0.00,,,0.00,meteohub,2013-06-05 16:09:00,
2013-06-05 12:14:00,70.5,46.9,30.23,ESE,122,3.0,5.0,43,0.00,,,0.00,meteohub,2013-06-05 16:14:00,
2013-06-05 12:19:00,70.3,48.0,30.23,ESE,121,1.0,7.0,45,0.00,,,0.00,meteohub,2013-06-05 16:19:00,
2013-06-05 12:24:00,70.5,47.5,30.22,ESE,123,3.0,7.0,44,0.00,,,0.00,meteohub,2013-06-05 16:24:00,
2013-06-05 12:29:00,70.5,47.5,30.22,SE,129,2.0,7.0,44,0.00,,,0.00,meteohub,2013-06-05 16:29:00,
2013-06-05 12:34:00,70.7,48.4,30.22,East,82,1.0,7.0,45,0.00,,,0.00,meteohub,2013-06-05 16:34:00,
2013-06-05 12:39:00,70.9,49.1,30.22,ENE,58,3.0,7.0,46,0.00,,,0.00,meteohub,2013-06-05 16:39:00,
2013-06-05 12:44:00,70.7,48.4,30.22,SSE,149,3.0,6.0,45,0.00,,,0.00,meteohub,2013-06-05 16:44:00,
2013-06-05 12:49:00,70.5,48.2,30.22,SE,124,0.0,4.0,45,0.00,,,0.00,meteohub,2013-06-05 16:49:00,
2013-06-05 12:54:00,69.8,48.0,30.21,ESE,113,2.0,5.0,46,0.00,,,0.00,meteohub,2013-06-05 16:54:00,
2013-06-05 12:59:00,69.4,47.8,30.21,SE,131,3.0,6.0,46,0.00,,,0.00,meteohub,2013-06-05 16:59:00,
2013-06-05 13:04:00,70.0,50.0,30.21,East,96,3.0,6.0,49,0.00,,,0.00,meteohub,2013-06-05 17:04:00,
2013-06-05 13:09:00,70.3,48.6,30.21,ENE,78,3.0,6.0,46,0.00,,,0.00,meteohub,2013-06-05 17:09:00,
2013-06-05 13:14:00,70.2,48.9,30.20,ENE,70,3.0,6.0,47,0.00,,,0.00,meteohub,2013-06-05 17:14:00,
2013-06-05 13:19:00,70.3,48.6,30.20,ESE,104,3.0,5.0,46,0.00,,,0.00,meteohub,2013-06-05 17:19:00,
2013-06-05 13:24:00,70.2,48.4,30.20,NE,44,4.0,5.0,46,0.00,,,0.00,meteohub,2013-06-05 17:24:00,
2013-06-05 13:29:00,70.0,48.2,30.20,ESE,110,2.0,6.0,46,0.00,,,0.00,meteohub,2013-06-05 17:29:00,
2013-06-05 13:35:00,70.7,48.9,30.19,SE,127,3.0,6.0,46,0.00,,,0.00,meteohub,2013-06-05 17:35:00,
2013-06-05 13:39:00,70.7,48.9,30.20,ESE,113,1.0,6.0,46,0.00,,,0.00,meteohub,2013-06-05 17:39:00,
2013-06-05 13:45:00,71.1,48.6,30.20,SE,127,2.0,5.0,45,0.00,,,0.00,meteohub,2013-06-05 17:45:00,
2013-06-05 13:50:00,71.6,49.6,30.20,East,85,2.0,5.0,46,0.00,,,0.00,meteohub,2013-06-05 17:50:00,
2013-06-05 13:55:00,71.4,49.6,30.20,East,80,0.0,5.0,46,0.00,,,0.00,meteohub,2013-06-05 17:55:00,
2013-06-05 14:00:00,72.1,50.2,30.20,ENE,74,1.0,5.0,46,0.00,,,0.00,meteohub,2013-06-05 18:00:00,
2013-06-05 14:05:00,72.7,50.2,30.20,ENE,74,0.0,4.0,45,0.00,,,0.00,meteohub,2013-06-05 18:05:00,
2013-06-05 14:10:00,72.7,50.7,30.20,East,90,1.0,4.0,46,0.00,,,0.00,meteohub,2013-06-05 18:10:00,
2013-06-05 14:15:00,73.0,49.3,30.19,NNE,22,0.0,4.0,43,0.00,,,0.00,meteohub,2013-06-05 18:15:00,
2013-06-05 14:20:00,72.7,50.2,30.19,SW,219,0.0,3.0,45,0.00,,,0.00,meteohub,2013-06-05 18:20:00,
2013-06-05 14:25:00,73.0,49.3,30.19,ENE,76,1.0,5.0,43,0.00,,,0.00,meteohub,2013-06-05 18:25:00,
2013-06-05 14:30:00,72.5,48.7,30.19,NE,53,3.0,5.0,43,0.00,,,0.00,meteohub,2013-06-05 18:30:00,
2013-06-05 14:35:00,72.0,49.5,30.19,ENE,78,3.0,5.0,45,0.00,,,0.00,meteohub,2013-06-05 18:35:00,
2013-06-05 14:40:00,72.1,49.6,30.19,SW,231,2.0,5.0,45,0.00,,,0.00,meteohub,2013-06-05 18:40:00,
2013-06-05 14:45:00,72.9,50.9,30.18,East,82,2.0,5.0,46,0.00,,,0.00,meteohub,2013-06-05 18:45:00,
2013-06-05 14:50:00,73.0,49.8,30.18,ENE,57,2.0,5.0,44,0.00,,,0.00,meteohub,2013-06-05 18:50:00,
2013-06-05 14:55:00,72.7,51.3,30.18,ENE,76,1.0,4.0,47,0.00,,,0.00,meteohub,2013-06-05 18:55:00,
2013-06-05 15:00:00,73.6,50.9,30.18,East,83,2.0,4.0,45,0.00,,,0.00,meteohub,2013-06-05 19:00:00,
2013-06-05 15:05:00,73.8,50.5,30.18,NE,53,2.0,4.0,44,0.00,,,0.00,meteohub,2013-06-05 19:05:00,
2013-06-05 15:10:00,73.8,50.5,30.18,SSW,193,2.0,4.0,44,0.00,,,0.00,meteohub,2013-06-05 19:10:00,
2013-06-05 15:15:00,74.5,51.8,30.17,SE,141,0.0,4.0,45,0.00,,,0.00,meteohub,2013-06-05 19:15:00,
2013-06-05 15:20:00,75.0,52.2,30.17,SW,227,2.0,7.0,45,0.00,,,0.00,meteohub,2013-06-05 19:20:00,
2013-06-05 15:25:00,75.0,51.1,30.17,South,170,3.0,7.0,43,0.00,,,0.00,meteohub,2013-06-05 19:25:00,
2013-06-05 15:30:00,74.8,50.9,30.17,ESE,108,1.0,7.0,43,0.00,,,0.00,meteohub,2013-06-05 19:30:00,
2013-06-05 15:35:00,74.5,50.5,30.17,ESE,105,3.0,7.0,43,0.00,,,0.00,meteohub,2013-06-05 19:35:00,
2013-06-05 15:40:00,73.6,50.9,30.17,ENE,76,2.0,5.0,45,0.00,,,0.00,meteohub,2013-06-05 19:40:00,
2013-06-05 15:45:00,72.9,50.4,30.17,East,92,1.0,7.0,45,0.00,,,0.00,meteohub,2013-06-05 19:45:00,
2013-06-05 15:50:00,73.0,51.1,30.18,ENE,72,0.0,7.0,46,0.00,,,0.00,meteohub,2013-06-05 19:50:00,
2013-06-05 15:55:00,73.6,51.4,30.18,East,82,1.0,7.0,46,0.00,,,0.00,meteohub,2013-06-05 19:55:00,
2013-06-05 16:00:00,73.6,51.4,30.18,SE,127,1.0,5.0,46,0.00,,,0.00,meteohub,2013-06-05 20:00:00,
2013-06-05 16:05:00,73.0,52.7,30.18,ENE,66,0.0,5.0,49,0.00,,,0.00,meteohub,2013-06-05 20:05:00,
2013-06-05 16:10:00,73.6,50.9,30.18,SE,128,1.0,5.0,45,0.00,,,0.00,meteohub,2013-06-05 20:10:00,
2013-06-05 16:15:00,73.0,51.6,30.18,ESE,113,2.0,4.0,47,0.00,,,0.00,meteohub,2013-06-05 20:15:00,
2013-06-05 16:20:00,73.0,52.2,30.17,ENE,67,0.0,4.0,48,0.00,,,0.00,meteohub,2013-06-05 20:20:00,
2013-06-05 16:25:00,73.0,52.7,30.18,ENE,70,3.0,4.0,49,0.00,,,0.00,meteohub,2013-06-05 20:25:00,
2013-06-05 16:30:00,72.7,52.3,30.18,East,92,1.0,4.0,49,0.00,,,0.00,meteohub,2013-06-05 20:30:00,
2013-06-05 16:35:00,72.3,52.2,30.18,East,79,0.0,4.0,49,0.00,,,0.00,meteohub,2013-06-05 20:35:00,
2013-06-05 16:40:00,72.3,52.7,30.18,WNW,293,2.0,4.0,50,0.00,,,0.00,meteohub,2013-06-05 20:40:00,
2013-06-05 16:45:00,72.3,52.2,30.18,East,94,0.0,5.0,49,0.00,,,0.00,meteohub,2013-06-05 20:45:00,
2013-06-05 16:50:00,72.1,50.7,30.18,NE,56,1.0,5.0,47,0.00,,,0.00,meteohub,2013-06-05 20:50:00,
2013-06-05 16:55:00,72.1,51.4,30.18,ENE,72,0.0,5.0,48,0.00,,,0.00,meteohub,2013-06-05 20:55:00,
2013-06-05 17:00:00,72.1,50.7,30.18,East,82,2.0,3.0,47,0.00,,,0.00,meteohub,2013-06-05 21:00:00,
2013-06-05 17:05:00,72.5,52.9,30.18,East,82,2.0,3.0,50,0.00,,,0.00,meteohub,2013-06-05 21:05:00,
2013-06-05 17:10:00,72.3,52.7,30.18,East,83,2.0,4.0,50,0.00,,,0.00,meteohub,2013-06-05 21:10:00,
2013-06-05 17:15:00,72.0,51.8,30.18,SE,124,1.0,4.0,49,0.00,,,0.00,meteohub,2013-06-05 21:15:00,
2013-06-05 17:20:00,72.5,53.4,30.18,East,81,0.0,4.0,51,0.00,,,0.00,meteohub,2013-06-05 21:20:00,
2013-06-05 17:25:00,73.0,51.6,30.17,ESE,115,2.0,4.0,47,0.00,,,0.00,meteohub,2013-06-05 21:25:00,
2013-06-05 17:30:00,72.9,52.0,30.17,ESE,116,2.0,4.0,48,0.00,,,0.00,meteohub,2013-06-05 21:30:00,
2013-06-05 17:35:00,72.3,50.9,30.17,East,88,2.0,4.0,47,0.00,,,0.00,meteohub,2013-06-05 21:35:00,
2013-06-05 17:40:00,72.0,51.3,30.17,East,84,1.0,4.0,48,0.00,,,0.00,meteohub,2013-06-05 21:40:00,
2013-06-05 17:45:00,71.4,51.8,30.17,East,96,1.0,4.0,50,0.00,,,0.00,meteohub,2013-06-05 21:45:00,
2013-06-05 17:51:00,71.2,51.1,30.18,ESE,117,2.0,3.0,49,0.00,,,0.00,meteohub,2013-06-05 21:51:00,
2013-06-05 17:56:00,70.9,50.7,30.17,East,94,1.0,3.0,49,0.00,,,0.00,meteohub,2013-06-05 21:56:00,
2013-06-05 18:01:00,71.1,50.4,30.18,East,91,0.0,3.0,48,0.00,,,0.00,meteohub,2013-06-05 22:01:00,
2013-06-05 18:06:00,70.9,50.2,30.17,East,98,0.0,3.0,48,0.00,,,0.00,meteohub,2013-06-05 22:06:00,
2013-06-05 18:11:00,71.1,51.4,30.17,ESE,104,0.0,3.0,50,0.00,,,0.00,meteohub,2013-06-05 22:11:00,
2013-06-05 18:16:00,71.4,51.3,30.17,East,82,0.0,2.0,49,0.00,,,0.00,meteohub,2013-06-05 22:16:00,
2013-06-05 18:21:00,71.1,48.6,30.17,East,101,1.0,2.0,45,0.00,,,0.00,meteohub,2013-06-05 22:21:00,
2013-06-05 18:26:00,70.5,49.3,30.17,East,91,0.0,2.0,47,0.00,,,0.00,meteohub,2013-06-05 22:26:00,
2013-06-05 18:31:00,70.5,49.8,30.17,East,97,1.0,3.0,48,0.00,,,0.00,meteohub,2013-06-05 22:31:00,
2013-06-05 18:36:00,70.5,49.8,30.16,East,89,0.0,3.0,48,0.00,,,0.00,meteohub,2013-06-05 22:36:00,
2013-06-05 18:41:00,70.9,50.7,30.16,ENE,74,2.0,3.0,49,0.00,,,0.00,meteohub,2013-06-05 22:41:00,
2013-06-05 18:46:00,70.3,50.9,30.16,SE,138,2.0,3.0,50,0.00,,,0.00,meteohub,2013-06-05 22:46:00,
2013-06-05 18:51:00,70.5,52.0,30.16,SE,139,1.0,3.0,52,0.00,,,0.00,meteohub,2013-06-05 22:51:00,
2013-06-05 18:56:00,70.5,51.4,30.16,ESE,108,0.0,3.0,51,0.00,,,0.00,meteohub,2013-06-05 22:56:00,
2013-06-05 19:01:00,70.2,51.8,30.16,East,96,1.0,4.0,52,0.00,,,0.00,meteohub,2013-06-05 23:01:00,
2013-06-05 19:06:00,70.2,52.2,30.17,East,94,1.0,4.0,53,0.00,,,0.00,meteohub,2013-06-05 23:06:00,
2013-06-05 19:11:00,70.2,53.2,30.17,East,101,1.0,4.0,55,0.00,,,0.00,meteohub,2013-06-05 23:11:00,
2013-06-05 19:16:00,70.3,54.0,30.17,East,85,0.0,3.0,56,0.00,,,0.00,meteohub,2013-06-05 23:16:00,
2013-06-05 19:21:00,69.6,54.1,30.17,ESE,111,2.0,3.0,58,0.00,,,0.00,meteohub,2013-06-05 23:21:00,
2013-06-05 19:26:00,69.1,53.6,30.17,ENE,77,1.0,3.0,58,0.00,,,0.00,meteohub,2013-06-05 23:26:00,
2013-06-05 19:32:00,68.4,53.4,30.17,East,83,0.0,3.0,59,0.00,,,0.00,meteohub,2013-06-05 23:32:00,
2013-06-05 19:37:00,68.2,53.2,30.17,East,89,0.0,3.0,59,0.00,,,0.00,meteohub,2013-06-05 23:37:00,
2013-06-05 19:42:00,67.8,53.4,30.16,SE,136,1.0,2.0,60,0.00,,,0.00,meteohub,2013-06-05 23:42:00,
2013-06-05 19:47:00,67.6,54.1,30.16,East,90,0.0,2.0,62,0.00,,,0.00,meteohub,2013-06-05 23:47:00,
2013-06-05 19:52:00,67.3,54.7,30.16,East,86,1.0,2.0,64,0.00,,,0.00,meteohub,2013-06-05 23:52:00,
2013-06-05 19:57:00,66.7,55.0,30.16,East,95,1.0,2.0,66,0.00,,,0.00,meteohub,2013-06-05 23:57:00,
2013-06-05 20:02:00,66.4,55.6,30.17,ESE,108,1.0,2.0,68,0.00,,,0.00,meteohub,2013-06-06 00:02:00,
2013-06-05 20:07:00,65.8,55.4,30.16,East,79,1.0,2.0,69,0.00,,,0.00,meteohub,2013-06-06 00:07:00,
2013-06-05 20:12:00,65.5,55.4,30.17,East,85,0.0,2.0,70,0.00,,,0.00,meteohub,2013-06-06 00:12:00,
2013-06-05 20:17:00,65.1,55.4,30.17,SE,130,0.0,2.0,71,0.00,,,0.00,meteohub,2013-06-06 00:17:00,
2013-06-05 20:22:00,64.9,55.8,30.17,ESE,106,0.0,2.0,72,0.00,,,0.00,meteohub,2013-06-06 00:22:00,
2013-06-05 20:27:00,64.6,55.8,30.17,ESE,102,1.0,2.0,73,0.00,,,0.00,meteohub,2013-06-06 00:27:00,
2013-06-05 20:32:00,64.2,56.1,30.17,ESE,121,1.0,2.0,75,0.00,,,0.00,meteohub,2013-06-06 00:32:00,
2013-06-05 20:37:00,63.9,56.1,30.17,ESE,107,0.0,1.0,76,0.00,,,0.00,meteohub,2013-06-06 00:37:00,
2013-06-05 20:42:00,63.7,56.3,30.17,ESE,110,0.0,1.0,77,0.00,,,0.00,meteohub,2013-06-06 00:42:00,
2013-06-05 20:47:00,63.3,56.3,30.17,SE,139,0.0,1.0,78,0.00,,,0.00,meteohub,2013-06-06 00:47:00,
2013-06-05 20:52:00,63.1,56.1,30.17,SE,135,0.0,1.0,78,0.00,,,0.00,meteohub,2013-06-06 00:52:00,
2013-06-05 20:57:00,63.1,56.5,30.17,SE,134,0.0,1.0,79,0.00,,,0.00,meteohub,2013-06-06 00:57:00,
2013-06-05 21:02:00,63.0,56.3,30.17,SE,135,0.0,1.0,79,0.00,,,0.00,meteohub,2013-06-06 01:02:00,
2013-06-05 21:07:00,62.8,56.5,30.17,SE,128,0.0,1.0,80,0.00,,,0.00,meteohub,2013-06-06 01:07:00,
2013-06-05 21:12:00,62.6,56.7,30.17,SE,129,0.0,1.0,81,0.00,,,0.00,meteohub,2013-06-06 01:12:00,
2013-06-05 21:17:00,62.6,56.7,30.17,SE,128,0.0,1.0,81,0.00,,,0.00,meteohub,2013-06-06 01:17:00,
2013-06-05 21:22:00,62.4,56.5,30.18,SE,128,0.0,1.0,81,0.00,,,0.00,meteohub,2013-06-06 01:22:00,
2013-06-05 21:27:00,62.2,56.7,30.18,East,86,1.0,1.0,82,0.00,,,0.00,meteohub,2013-06-06 01:27:00,
2013-06-05 21:32:00,62.2,56.3,30.19,East,86,0.0,1.0,81,0.00,,,0.00,meteohub,2013-06-06 01:32:00,
2013-06-05 21:37:00,62.1,56.1,30.19,East,87,0.0,1.0,81,0.00,,,0.00,meteohub,2013-06-06 01:37:00,
2013-06-05 21:42:00,62.1,56.1,30.18,East,87,0.0,1.0,81,0.00,,,0.00,meteohub,2013-06-06 01:42:00,
2013-06-05 21:47:00,62.1,55.4,30.18,East,88,0.0,1.0,79,0.00,,,0.00,meteohub,2013-06-06 01:47:00,
2013-06-05 21:52:00,61.9,55.2,30.18,East,88,0.0,1.0,79,0.00,,,0.00,meteohub,2013-06-06 01:52:00,
2013-06-05 21:57:00,61.7,55.0,30.19,East,87,0.0,1.0,79,0.00,,,0.00,meteohub,2013-06-06 01:57:00,
2013-06-05 22:02:00,61.5,55.2,30.18,East,87,0.0,0.0,80,0.00,,,0.00,meteohub,2013-06-06 02:02:00,
2013-06-05 22:07:00,61.3,55.0,30.18,East,88,0.0,1.0,80,0.00,,,0.00,meteohub,2013-06-06 02:07:00,
2013-06-05 22:12:00,61.2,55.2,30.18,East,87,0.0,1.0,81,0.00,,,0.00,meteohub,2013-06-06 02:12:00,
2013-06-05 22:17:00,61.0,55.0,30.18,East,88,0.0,1.0,81,0.00,,,0.00,meteohub,2013-06-06 02:17:00,
2013-06-05 22:22:00,60.6,54.7,30.18,East,87,0.0,0.0,81,0.00,,,0.00,meteohub,2013-06-06 02:22:00,
2013-06-05 22:27:00,60.4,54.9,30.18,East,87,0.0,0.0,82,0.00,,,0.00,meteohub,2013-06-06 02:27:00,
2013-06-05 22:32:00,60.4,54.9,30.19,East,88,0.0,0.0,82,0.00,,,0.00,meteohub,2013-06-06 02:32:00,
2013-06-05 22:37:00,60.3,55.0,30.18,East,87,0.0,0.0,83,0.00,,,0.00,meteohub,2013-06-06 02:37:00,
2013-06-05 22:42:00,60.1,54.9,30.18,East,88,0.0,0.0,83,0.00,,,0.00,meteohub,2013-06-06 02:42:00,
2013-06-05 22:47:00,59.9,55.0,30.19,East,87,0.0,0.0,84,0.00,,,0.00,meteohub,2013-06-06 02:47:00,
2013-06-05 22:52:00,59.7,54.9,30.19,East,88,0.0,0.0,84,0.00,,,0.00,meteohub,2013-06-06 02:52:00,
2013-06-05 22:58:00,59.7,55.2,30.19,East,87,0.0,0.0,85,0.00,,,0.00,meteohub,2013-06-06 02:58:00,
2013-06-05 23:03:00,59.5,55.0,30.19,East,87,0.0,0.0,85,0.00,,,0.00,meteohub,2013-06-06 03:03:00,
2013-06-05 23:08:00,59.4,55.2,30.18,East,87,0.0,0.0,86,0.00,,,0.00,meteohub,2013-06-06 03:08:00,
2013-06-05 23:13:00,59.4,55.2,30.18,East,88,0.0,0.0,86,0.00,,,0.00,meteohub,2013-06-06 03:13:00,
2013-06-05 23:18:00,59.2,55.4,30.18,East,87,0.0,0.0,87,0.00,,,0.00,meteohub,2013-06-06 03:18:00,
2013-06-05 23:23:00,58.8,55.0,30.17,East,87,0.0,0.0,87,0.00,,,0.00,meteohub,2013-06-06 03:23:00,
2013-06-05 23:28:00,58.8,55.2,30.18,East,88,0.0,0.0,88,0.00,,,0.00,meteohub,2013-06-06 03:28:00,
2013-06-05 23:33:00,58.6,55.0,30.18,East,88,0.0,0.0,88,0.00,,,0.00,meteohub,2013-06-06 03:33:00,
2013-06-05 23:38:00,58.5,54.9,30.18,East,88,0.0,0.0,88,0.00,,,0.00,meteohub,2013-06-06 03:38:00,
2013-06-05 23:43:00,58.5,55.2,30.18,East,87,0.0,0.0,89,0.00,,,0.00,meteohub,2013-06-06 03:43:00,
2013-06-05 23:48:00,58.3,55.0,30.18,East,87,0.0,0.0,89,0.00,,,0.00,meteohub,2013-06-06 03:48:00,
2013-06-05 23:53:00,58.1,54.9,30.18,East,87,0.0,0.0,89,0.00,,,0.00,meteohub,2013-06-06 03:53:00,
2013-06-05 23:58:00,57.9,55.0,30.18,East,88,0.0,0.0,90,0.00,,,0.00,meteohub,2013-06-06 03:58:00,